createdAt,value
2023-01-19T00:00:51.828Z,41.80
2023-01-19T00:03:18.515Z,36.40
2023-01-19T00:05:45.473Z,40.50
2023-01-19T00:08:15.458Z,39.90
2023-01-19T00:10:47.969Z,42.30
2023-01-19T00:13:16.014Z,42.50
2023-01-19T00:15:43.198Z,42.30
2023-01-19T00:18:11.096Z,39.00
2023-01-19T00:20:42.024Z,40.10
2023-01-19T00:23:09.430Z,36.30
2023-01-19T00:25:42.873Z,37.60
2023-01-19T00:28:15.100Z,33.30
2023-01-19T00:30:42.301Z,39.80
2023-01-19T00:33:10.626Z,38.40
2023-01-19T00:35:37.258Z,39.70
2023-01-19T00:38:03.980Z,41.70
2023-01-19T00:40:30.726Z,42.00
2023-01-19T00:42:58.319Z,45.70
2023-01-19T00:45:25.115Z,43.00
2023-01-19T00:47:56.766Z,48.40
2023-01-19T00:50:29.585Z,46.10
2023-01-19T00:53:00.955Z,45.90
2023-01-19T00:55:28.622Z,43.00
2023-01-19T00:57:55.250Z,39.60
2023-01-19T01:00:22.562Z,38.70
2023-01-19T01:02:52.196Z,46.10
2023-01-19T01:05:19.816Z,43.50
2023-01-19T01:07:49.428Z,46.50
2023-01-19T01:10:21.626Z,49.00
2023-01-19T01:12:57.666Z,46.30
2023-01-19T01:15:28.212Z,50.90
2023-01-19T01:17:56.174Z,46.30
2023-01-19T01:20:27.831Z,50.90
2023-01-19T01:22:55.941Z,49.90
2023-01-19T01:25:25.790Z,45.40
2023-01-19T01:27:52.607Z,46.80
2023-01-19T01:30:20.157Z,49.10
2023-01-19T01:32:46.922Z,50.70
2023-01-19T01:35:14.019Z,47.50
2023-01-19T01:37:41.061Z,50.50
2023-01-19T01:40:14.778Z,51.50
2023-01-19T01:42:42.619Z,45.50
2023-01-19T01:45:40.518Z,45.40
2023-01-19T01:48:22.313Z,47.90
2023-01-19T01:51:17.481Z,49.60
2023-01-19T01:53:49.623Z,45.30
2023-01-19T01:56:21.501Z,49.30
2023-01-19T01:58:49.209Z,46.60
2023-01-19T02:01:34.765Z,45.10
2023-01-19T02:04:01.387Z,46.30
2023-01-19T02:06:28.585Z,51.40
2023-01-19T02:09:23.907Z,52.20
2023-01-19T02:12:09.291Z,50.80
2023-01-19T02:14:39.453Z,50.40
2023-01-19T02:17:07.221Z,46.60
2023-01-19T02:19:43.301Z,50.40
2023-01-19T02:22:23.077Z,49.40
2023-01-19T02:24:50.019Z,44.30
2023-01-19T02:27:17.510Z,49.90
2023-01-19T02:29:44.399Z,44.90
2023-01-19T02:32:10.985Z,44.90
2023-01-19T02:34:37.642Z,46.00
2023-01-19T02:37:13.112Z,42.40
2023-01-19T02:39:53.255Z,49.40
2023-01-19T02:42:36.825Z,48.50
2023-01-19T02:45:06.825Z,51.00
2023-01-19T02:47:44.351Z,44.30
2023-01-19T02:50:47.465Z,49.00
2023-01-19T02:53:32.457Z,51.20
2023-01-19T02:56:26.574Z,50.20
2023-01-19T02:59:05.195Z,49.70
2023-01-19T03:02:00.725Z,49.10
2023-01-19T03:05:06.163Z,52.00
2023-01-19T03:08:06.038Z,50.90
2023-01-19T03:11:02.850Z,50.90
2023-01-19T03:13:39.601Z,49.30
2023-01-19T03:16:17.689Z,44.30
2023-01-19T03:18:51.485Z,45.70
2023-01-19T03:21:20.834Z,50.70
2023-01-19T03:23:51.636Z,45.20
2023-01-19T03:26:27.109Z,52.30
2023-01-19T03:28:59.473Z,55.80
2023-01-19T03:31:30.464Z,58.30
2023-01-19T03:34:05.618Z,59.10
2023-01-19T03:36:42.596Z,59.20
2023-01-19T03:39:10.875Z,59.60
2023-01-19T03:41:41.190Z,56.80
2023-01-19T03:44:09.225Z,54.70
2023-01-19T03:46:35.883Z,58.30
2023-01-19T03:49:02.405Z,52.80
2023-01-19T03:51:29.659Z,57.70
2023-01-19T03:53:56.139Z,58.40
2023-01-19T03:56:26.041Z,59.90
2023-01-19T03:58:52.673Z,49.10
2023-01-19T04:01:23.116Z,46.70
2023-01-19T04:03:51.614Z,49.70
2023-01-19T04:06:20.517Z,55.50
2023-01-19T04:08:51.834Z,55.50
2023-01-19T04:11:18.492Z,52.70
2023-01-19T04:13:45.020Z,54.00
2023-01-19T04:16:12.587Z,50.80
2023-01-19T04:18:40.546Z,56.70
2023-01-19T04:21:08.038Z,53.50
2023-01-19T04:23:35.105Z,51.90
2023-01-19T04:26:05.659Z,50.90
2023-01-19T04:28:34.755Z,52.80
2023-01-19T04:31:01.606Z,50.80
2023-01-19T04:33:29.010Z,54.30
2023-01-19T04:35:56.147Z,55.00
2023-01-19T04:38:24.546Z,54.00
2023-01-19T04:40:53.062Z,52.90
2023-01-19T04:43:23.842Z,60.60
2023-01-19T04:45:51.183Z,58.20
2023-01-19T04:48:18.967Z,53.60
2023-01-19T04:50:46.407Z,57.00
2023-01-19T04:53:13.783Z,58.70
2023-01-19T04:55:41.043Z,57.50
2023-01-19T04:58:07.963Z,53.00
2023-01-19T05:00:34.538Z,58.20
2023-01-19T05:03:01.943Z,54.20
2023-01-19T05:05:29.229Z,61.80
2023-01-19T05:07:56.103Z,57.60
2023-01-19T05:10:23.732Z,62.80
2023-01-19T05:12:51.171Z,64.40
2023-01-19T05:15:17.864Z,71.00
2023-01-19T05:17:44.395Z,69.20
2023-01-19T05:20:14.962Z,61.40
2023-01-19T05:22:42.476Z,61.70
2023-01-19T05:25:09.433Z,71.70
2023-01-19T05:27:37.848Z,62.60
2023-01-19T05:30:05.643Z,64.90
2023-01-19T05:32:32.729Z,64.50
2023-01-19T05:34:59.441Z,63.50
2023-01-19T05:37:26.226Z,69.80
2023-01-19T05:39:53.512Z,59.80
2023-01-19T05:42:20.173Z,61.50
2023-01-19T05:44:46.771Z,61.00
2023-01-19T05:47:13.222Z,66.90
2023-01-19T05:49:39.689Z,62.70
2023-01-19T05:52:06.329Z,67.00
2023-01-19T05:54:32.894Z,66.30
2023-01-19T05:56:59.345Z,67.20
2023-01-19T05:59:26.009Z,64.30
2023-01-19T06:01:53.366Z,69.00
2023-01-19T06:04:21.254Z,85.30
2023-01-19T06:06:49.456Z,94.60
2023-01-19T06:09:17.385Z,98.80
2023-01-19T06:11:46.126Z,90.80
2023-01-19T06:14:13.442Z,100.90
2023-01-19T06:16:40.460Z,105.40
2023-01-19T06:19:07.475Z,105.50
2023-01-19T06:21:34.340Z,92.70
2023-01-19T06:24:00.791Z,78.90
2023-01-19T06:26:27.579Z,70.00
2023-01-19T06:28:54.035Z,67.70
2023-01-19T06:31:20.491Z,67.10
2023-01-19T06:33:47.148Z,64.80
2023-01-19T06:36:14.084Z,68.70
2023-01-19T06:38:40.473Z,69.70
2023-01-19T06:41:07.082Z,67.30
2023-01-19T06:43:33.543Z,74.80
2023-01-19T06:46:00.927Z,73.60
2023-01-19T06:48:27.896Z,70.60
2023-01-19T06:50:54.722Z,70.00
2023-01-19T06:53:22.367Z,69.70
2023-01-19T06:55:49.006Z,70.70
2023-01-19T06:58:15.716Z,70.30
2023-01-19T07:00:43.056Z,67.40
2023-01-19T07:03:20.632Z,66.30
2023-01-19T07:05:49.807Z,67.80
2023-01-19T07:08:16.466Z,74.90
2023-01-19T07:11:25.421Z,77.80
2023-01-19T07:13:30.089Z,88.50
2023-01-19T07:15:56.598Z,84.50
2023-01-19T07:18:23.131Z,80.10
2023-01-19T07:20:49.561Z,68.80
2023-01-19T07:23:16.548Z,65.90
2023-01-19T07:25:46.880Z,64.00
2023-01-19T07:28:16.010Z,66.70
2023-01-19T07:30:46.177Z,67.70
2023-01-19T07:33:12.810Z,62.30
2023-01-19T07:35:39.253Z,72.60
2023-01-19T07:38:05.751Z,74.60
2023-01-19T07:40:33.685Z,73.90
2023-01-19T07:43:00.453Z,74.30
2023-01-19T07:45:27.994Z,88.70
2023-01-19T07:47:54.559Z,83.10
2023-01-19T07:50:24.556Z,86.10
2023-01-19T07:52:53.517Z,81.80
2023-01-19T07:55:21.786Z,81.40
2023-01-19T07:57:51.039Z,81.70
2023-01-19T08:00:21.873Z,87.20
2023-01-19T08:02:51.968Z,81.10
2023-01-19T08:05:20.622Z,88.20
2023-01-19T08:07:48.348Z,80.00
2023-01-19T08:10:16.694Z,80.90
2023-01-19T08:12:43.359Z,76.70
2023-01-19T08:15:11.695Z,70.50
2023-01-19T08:17:38.345Z,74.40
2023-01-19T08:20:06.574Z,76.60
2023-01-19T08:22:33.039Z,77.80
2023-01-19T08:24:59.446Z,81.90
2023-01-19T08:27:25.981Z,82.30
2023-01-19T08:29:54.241Z,79.20
2023-01-19T08:32:20.771Z,82.50
2023-01-19T08:34:47.480Z,85.30
2023-01-19T08:37:13.953Z,78.50
2023-01-19T08:39:40.303Z,81.30
2023-01-19T08:42:06.737Z,74.50
2023-01-19T08:44:33.190Z,82.40
2023-01-19T08:47:00.171Z,82.70
2023-01-19T08:49:26.616Z,84.60
2023-01-19T08:51:53.280Z,75.60
2023-01-19T08:54:21.708Z,68.80
2023-01-19T08:56:48.101Z,73.70
2023-01-19T08:59:14.733Z,66.10
2023-01-19T09:01:41.419Z,59.50
2023-01-19T09:04:08.515Z,50.00
2023-01-19T09:06:35.115Z,53.70
2023-01-19T09:09:01.738Z,47.50
2023-01-19T09:11:28.210Z,53.30
2023-01-19T09:13:54.800Z,66.30
2023-01-19T09:16:21.425Z,44.70
2023-01-19T09:18:48.025Z,48.40
2023-01-19T09:21:15.124Z,44.80
2023-01-19T09:23:41.832Z,50.40
2023-01-19T09:26:08.347Z,54.30
2023-01-19T09:28:37.642Z,50.90
2023-01-19T09:31:08.814Z,48.30
2023-01-19T09:33:35.925Z,49.20
2023-01-19T09:36:02.654Z,48.10
2023-01-19T09:38:32.802Z,52.40
2023-01-19T09:41:01.263Z,49.10
2023-01-19T09:43:56.322Z,48.90
2023-01-19T09:46:35.498Z,49.90
2023-01-19T09:49:16.914Z,53.40
2023-01-19T09:51:50.907Z,49.70
2023-01-19T09:54:30.494Z,54.60
2023-01-19T09:56:57.039Z,48.20
2023-01-19T09:59:30.558Z,44.90
2023-01-19T10:02:36.217Z,45.70
2023-01-19T10:05:33.380Z,45.20
2023-01-19T10:08:45.710Z,44.60
2023-01-19T10:11:42.036Z,54.40
2023-01-19T10:14:36.575Z,43.40
2023-01-19T10:17:26.227Z,46.30
2023-01-19T10:19:58.821Z,46.00
2023-01-19T10:22:28.641Z,47.20
2023-01-19T10:25:06.070Z,53.30
2023-01-19T10:27:35.553Z,58.50
2023-01-19T10:30:02.399Z,75.70
2023-01-19T10:32:36.234Z,56.30
2023-01-19T10:35:23.401Z,41.70
2023-01-19T10:37:58.300Z,47.60
2023-01-19T10:40:48.424Z,50.50
2023-01-19T10:43:33.908Z,44.30
2023-01-19T10:46:05.890Z,44.90
2023-01-19T10:48:42.691Z,41.80
2023-01-19T10:51:11.741Z,42.70
2023-01-19T10:53:38.359Z,42.70
2023-01-19T10:56:21.177Z,40.10
2023-01-19T10:58:47.793Z,42.70
2023-01-19T11:01:18.503Z,41.50
2023-01-19T11:03:45.676Z,38.80
2023-01-19T11:06:15.436Z,39.60
2023-01-19T11:08:44.354Z,42.00
2023-01-19T11:11:12.427Z,46.90
2023-01-19T11:13:43.819Z,45.50
2023-01-19T11:16:30.600Z,42.30
2023-01-19T11:19:02.107Z,48.30
2023-01-19T11:21:32.946Z,48.50
2023-01-19T11:24:05.351Z,45.30
2023-01-19T11:27:03.619Z,49.30
2023-01-19T11:29:31.575Z,45.50
2023-01-19T11:32:22.271Z,39.00
2023-01-19T11:34:50.149Z,47.50
2023-01-19T11:37:16.652Z,50.20
2023-01-19T11:39:59.426Z,44.30
2023-01-19T11:42:30.077Z,48.30
2023-01-19T11:45:19.190Z,45.90
2023-01-19T11:47:54.652Z,44.40
2023-01-19T11:50:41.251Z,38.10
2023-01-19T11:53:19.563Z,50.10
2023-01-19T11:56:11.654Z,42.20
2023-01-19T11:58:42.086Z,46.30
2023-01-19T12:01:31.295Z,47.00
2023-01-19T12:04:07.521Z,45.40
2023-01-19T12:06:44.538Z,37.40
2023-01-19T12:09:24.136Z,46.80
2023-01-19T12:12:40.445Z,46.80
2023-01-19T12:15:22.860Z,42.70
2023-01-19T12:17:54.081Z,24.80
2023-01-19T12:20:54.475Z,40.80
2023-01-19T12:23:55.623Z,40.60
2023-01-19T12:26:35.737Z,40.40
2023-01-19T12:29:21.796Z,36.80
2023-01-19T12:32:19.865Z,44.80
2023-01-19T12:34:56.063Z,34.50
2023-01-19T12:37:31.456Z,39.50
2023-01-19T12:40:03.619Z,45.80
2023-01-19T12:42:30.537Z,41.10
2023-01-19T12:45:07.992Z,42.80
2023-01-19T12:47:36.514Z,42.50
2023-01-19T12:50:19.159Z,43.10
2023-01-19T12:52:57.801Z,50.40
2023-01-19T12:55:31.083Z,45.10
2023-01-19T12:58:21.168Z,44.00
2023-01-19T13:00:51.792Z,41.40
2023-01-19T13:03:18.269Z,39.50
2023-01-19T13:05:44.720Z,48.00
2023-01-19T13:08:17.524Z,46.40
2023-01-19T13:11:05.799Z,41.70
2023-01-19T13:13:38.303Z,36.50
2023-01-19T13:16:27.758Z,35.50
2023-01-19T13:19:10.116Z,38.30
2023-01-19T13:21:44.995Z,38.20
2023-01-19T13:24:22.266Z,36.80
2023-01-19T13:26:48.674Z,40.00
2023-01-19T13:29:35.269Z,38.50
2023-01-19T13:32:12.749Z,37.60
2023-01-19T13:34:42.631Z,37.90
2023-01-19T13:37:22.255Z,41.30
2023-01-19T13:39:53.352Z,44.90
2023-01-19T13:42:36.285Z,39.30
2023-01-19T13:45:33.735Z,40.40
2023-01-19T13:48:06.517Z,41.30
2023-01-19T13:50:37.266Z,41.70
2023-01-19T13:53:27.827Z,45.50
2023-01-19T13:56:18.388Z,35.60
2023-01-19T13:59:11.717Z,46.80
2023-01-19T14:01:43.081Z,42.00
2023-01-19T14:04:34.083Z,38.90
2023-01-19T14:07:23.246Z,38.00
2023-01-19T14:10:21.367Z,45.40
2023-01-19T14:13:02.407Z,39.60
2023-01-19T14:15:32.651Z,40.70
2023-01-19T14:18:14.152Z,46.20
2023-01-19T14:20:42.090Z,42.90
2023-01-19T14:23:39.177Z,38.40
2023-01-19T14:26:26.882Z,40.40
2023-01-19T14:28:54.467Z,37.90
2023-01-19T14:31:26.088Z,36.80
2023-01-19T14:33:56.227Z,36.90
2023-01-19T14:36:51.507Z,34.10
2023-01-19T14:39:26.073Z,33.50
2023-01-19T14:41:55.705Z,35.60
2023-01-19T14:44:38.530Z,33.70
2023-01-19T14:47:19.687Z,40.90
2023-01-19T14:49:47.493Z,33.60
2023-01-19T14:52:22.423Z,34.30
2023-01-19T14:54:49.744Z,40.40
2023-01-19T14:57:16.399Z,35.30
2023-01-19T14:59:48.341Z,32.90
2023-01-19T15:02:15.495Z,30.50
2023-01-19T15:04:41.992Z,29.90
2023-01-19T15:07:18.619Z,38.70
2023-01-19T15:09:49.369Z,31.60
2023-01-19T15:12:18.703Z,36.00
2023-01-19T15:14:45.920Z,35.50
2023-01-19T15:17:27.203Z,37.90
2023-01-19T15:19:55.531Z,35.90
2023-01-19T15:22:27.034Z,35.30
2023-01-19T15:24:57.402Z,40.00
2023-01-19T15:27:24.266Z,52.60
2023-01-19T15:29:50.681Z,53.40
2023-01-19T15:32:17.082Z,48.60
2023-01-19T15:34:43.571Z,34.90
2023-01-19T15:37:09.970Z,31.00
2023-01-19T15:39:36.563Z,32.70
2023-01-19T15:42:03.266Z,35.10
2023-01-19T15:44:30.309Z,30.70
2023-01-19T15:46:57.366Z,30.50
2023-01-19T15:49:23.894Z,32.30
2023-01-19T15:51:50.384Z,31.30
2023-01-19T15:54:18.627Z,33.50
2023-01-19T15:56:45.423Z,31.70
2023-01-19T15:59:12.285Z,35.90
2023-01-19T16:01:40.555Z,36.20
2023-01-19T16:04:10.994Z,39.20
2023-01-19T16:06:38.393Z,33.90
2023-01-19T16:09:05.785Z,32.40
2023-01-19T16:11:37.762Z,34.80
2023-01-19T16:14:04.349Z,32.00
2023-01-19T16:16:30.996Z,33.30
2023-01-19T16:18:57.951Z,33.10
2023-01-19T16:21:24.860Z,34.70
2023-01-19T16:23:51.775Z,36.10
2023-01-19T16:26:34.534Z,36.10
2023-01-19T16:29:10.912Z,42.00
2023-01-19T16:31:40.569Z,36.40
2023-01-19T16:34:08.903Z,36.50
2023-01-19T16:36:40.330Z,35.60
2023-01-19T16:39:11.360Z,35.10
2023-01-19T16:41:38.805Z,34.50
2023-01-19T16:44:06.595Z,40.00
2023-01-19T16:46:37.139Z,39.00
2023-01-19T16:49:20.072Z,39.60
2023-01-19T16:51:47.444Z,42.70
2023-01-19T16:54:26.028Z,44.50
2023-01-19T16:56:55.061Z,46.20
2023-01-19T16:59:22.729Z,36.60
2023-01-19T17:01:51.905Z,38.20
2023-01-19T17:04:20.871Z,35.30
2023-01-19T17:06:47.564Z,30.70
2023-01-19T17:09:14.747Z,34.90
2023-01-19T17:11:41.370Z,33.60
2023-01-19T17:14:13.215Z,32.90
2023-01-19T17:16:40.449Z,34.90
2023-01-19T17:19:08.874Z,33.90
2023-01-19T17:21:35.713Z,32.80
2023-01-19T17:24:02.330Z,32.00
2023-01-19T17:26:30.957Z,30.90
2023-01-19T17:29:00.734Z,27.40
2023-01-19T17:31:28.392Z,30.80
2023-01-19T17:33:55.125Z,28.40
2023-01-19T17:36:25.532Z,28.80
2023-01-19T17:38:55.145Z,29.50
2023-01-19T17:41:30.662Z,29.90
2023-01-19T17:43:57.953Z,28.50
2023-01-19T17:46:27.384Z,31.40
2023-01-19T17:49:03.495Z,34.20
2023-01-19T17:51:31.833Z,38.50
2023-01-19T17:53:59.227Z,26.80
2023-01-19T17:56:30.291Z,31.10
2023-01-19T17:58:58.648Z,26.30
2023-01-19T18:01:29.573Z,36.60
2023-01-19T18:03:56.767Z,31.70
2023-01-19T18:06:23.413Z,33.50
2023-01-19T18:08:50.598Z,34.60
2023-01-19T18:11:20.367Z,36.40
2023-01-19T18:13:48.793Z,34.90
2023-01-19T18:16:21.426Z,43.10
2023-01-19T18:18:49.701Z,34.40
2023-01-19T18:21:17.197Z,35.40
2023-01-19T18:23:45.215Z,31.80
2023-01-19T18:26:20.949Z,38.80
2023-01-19T18:28:48.697Z,40.40
2023-01-19T18:31:18.202Z,41.20
2023-01-19T18:33:45.302Z,44.60
2023-01-19T18:36:11.791Z,44.90
2023-01-19T18:38:39.064Z,43.90
2023-01-19T18:41:15.306Z,55.30
2023-01-19T18:43:43.556Z,48.10
2023-01-19T18:46:11.464Z,37.60
2023-01-19T18:48:39.473Z,38.60
2023-01-19T18:51:15.051Z,40.30
2023-01-19T18:53:42.591Z,38.20
2023-01-19T18:56:13.209Z,48.70
2023-01-19T18:58:40.250Z,48.80
2023-01-19T19:01:33.661Z,50.10
2023-01-19T19:04:01.344Z,54.30
2023-01-19T19:06:28.016Z,48.00
2023-01-19T19:08:59.038Z,44.90
2023-01-19T19:11:26.981Z,42.00
2023-01-19T19:13:59.336Z,48.00
2023-01-19T19:16:26.808Z,40.90
2023-01-19T19:18:53.348Z,45.10
2023-01-19T19:21:23.979Z,47.70
2023-01-19T19:23:56.726Z,46.70
2023-01-19T19:26:26.223Z,48.80
2023-01-19T19:28:52.835Z,36.60
2023-01-19T19:31:22.811Z,34.90
2023-01-19T19:33:50.932Z,42.50
2023-01-19T19:36:20.011Z,31.40
2023-01-19T19:38:47.581Z,35.60
2023-01-19T19:41:18.095Z,37.30
2023-01-19T19:43:44.775Z,35.70
2023-01-19T19:46:13.960Z,33.10
2023-01-19T19:48:40.663Z,35.30
2023-01-19T19:51:28.048Z,38.20
2023-01-19T19:54:01.079Z,37.50
2023-01-19T19:56:30.836Z,33.90
2023-01-19T19:58:59.579Z,32.70
2023-01-19T20:01:32.592Z,33.00
2023-01-19T20:04:09.653Z,31.50
2023-01-19T20:06:39.762Z,34.70
2023-01-19T20:09:10.329Z,35.70
2023-01-19T20:11:37.238Z,32.00
2023-01-19T20:14:10.162Z,37.70
2023-01-19T20:16:38.118Z,38.50
2023-01-19T20:19:05.883Z,40.70
2023-01-19T20:21:36.016Z,41.00
2023-01-19T20:24:07.361Z,41.80
2023-01-19T20:26:40.115Z,29.20
2023-01-19T20:29:06.881Z,36.60
2023-01-19T20:31:37.667Z,33.90
2023-01-19T20:34:07.287Z,33.00
2023-01-19T20:36:34.906Z,37.10
2023-01-19T20:39:08.253Z,34.80
2023-01-19T20:41:43.098Z,33.60
2023-01-19T20:44:16.023Z,33.20
2023-01-19T20:46:43.132Z,34.20
2023-01-19T20:49:10.104Z,37.00
2023-01-19T20:51:38.700Z,43.90
2023-01-19T20:54:05.223Z,41.70
2023-01-19T20:56:31.834Z,42.60
2023-01-19T20:58:59.526Z,38.90
2023-01-19T21:01:26.119Z,41.00
2023-01-19T21:03:53.011Z,40.10
2023-01-19T21:06:21.586Z,42.00
2023-01-19T21:08:51.934Z,39.30
2023-01-19T21:11:20.951Z,35.90
2023-01-19T21:13:48.885Z,35.80
2023-01-19T21:16:16.175Z,37.20
2023-01-19T21:18:43.633Z,31.50
2023-01-19T21:21:20.906Z,39.70
2023-01-19T21:24:02.762Z,39.00
2023-01-19T21:26:30.329Z,36.50
2023-01-19T21:29:01.335Z,38.90
2023-01-19T21:31:28.601Z,39.20
2023-01-19T21:33:57.718Z,37.20
2023-01-19T21:36:25.507Z,39.30
2023-01-19T21:38:52.391Z,36.90
2023-01-19T21:41:19.569Z,35.50
2023-01-19T21:43:46.181Z,34.40
2023-01-19T21:46:19.025Z,32.30
2023-01-19T21:48:45.965Z,38.10
2023-01-19T21:51:14.007Z,41.80
2023-01-19T21:53:41.500Z,36.00
2023-01-19T21:56:10.755Z,34.30
2023-01-19T21:58:37.657Z,34.60
2023-01-19T22:01:13.651Z,30.20
2023-01-19T22:03:41.175Z,34.70
2023-01-19T22:06:11.333Z,35.30
2023-01-19T22:08:38.095Z,37.10
2023-01-19T22:11:11.325Z,31.50
2023-01-19T22:13:38.878Z,37.20
2023-01-19T22:16:12.748Z,41.70
2023-01-19T22:18:42.728Z,40.10
2023-01-19T22:21:15.733Z,35.70
2023-01-19T22:23:43.462Z,41.20
2023-01-19T22:26:11.650Z,40.90
2023-01-19T22:28:38.234Z,38.20
2023-01-19T22:31:12.431Z,39.40
2023-01-19T22:33:40.044Z,41.60
2023-01-19T22:36:24.954Z,44.00
2023-01-19T22:39:00.695Z,45.10
2023-01-19T22:41:34.869Z,49.90
2023-01-19T22:44:04.973Z,55.40
2023-01-19T22:46:35.483Z,46.60
2023-01-19T22:49:04.175Z,53.00
2023-01-19T22:51:33.321Z,48.80
2023-01-19T22:53:59.906Z,53.60
2023-01-19T22:56:30.336Z,57.50
2023-01-19T22:58:58.570Z,45.50
2023-01-19T23:01:33.569Z,50.40
2023-01-19T23:04:02.666Z,48.30
2023-01-19T23:06:32.495Z,55.50
2023-01-19T23:09:02.495Z,50.00
2023-01-19T23:11:35.970Z,48.70
2023-01-19T23:14:04.496Z,59.60
2023-01-19T23:16:30.936Z,48.60
2023-01-19T23:18:58.643Z,56.30
2023-01-19T23:21:28.918Z,54.70
2023-01-19T23:23:59.701Z,54.20
2023-01-19T23:26:26.949Z,54.30
2023-01-19T23:28:56.698Z,48.80
2023-01-19T23:31:29.348Z,44.50
2023-01-19T23:34:02.916Z,42.90
2023-01-19T23:36:33.666Z,51.70
2023-01-19T23:39:05.299Z,45.80
2023-01-19T23:41:36.239Z,45.60
2023-01-19T23:44:03.491Z,43.10
2023-01-19T23:46:30.454Z,41.90
2023-01-19T23:48:57.487Z,48.10
2023-01-19T23:51:30.515Z,41.50
2023-01-19T23:53:59.691Z,40.40
2023-01-19T23:56:33.355Z,51.60
2023-01-19T23:59:12.186Z,40.30
